sensor_id;sensor_type;location;lat;lon;timestamp;temperature;humidity
5723;DHT22;2886;49.722;8.612;2022-08-19T00:00:09;21.20;99.90
5723;DHT22;2886;49.722;8.612;2022-08-19T00:02:36;21.20;99.90
5723;DHT22;2886;49.722;8.612;2022-08-19T00:05:03;21.20;99.90
5723;DHT22;2886;49.722;8.612;2022-08-19T00:07:29;21.20;99.90
5723;DHT22;2886;49.722;8.612;2022-08-19T00:09:55;21.20;99.90
5723;DHT22;2886;49.722;8.612;2022-08-19T00:12:21;21.30;99.90
5723;DHT22;2886;49.722;8.612;2022-08-19T00:14:47;21.30;99.90
5723;DHT22;2886;49.722;8.612;2022-08-19T00:17:12;21.20;99.90
5723;DHT22;2886;49.722;8.612;2022-08-19T00:19:38;21.20;99.90
5723;DHT22;2886;49.722;8.612;2022-08-19T00:22:04;21.20;99.90
5723;DHT22;2886;49.722;8.612;2022-08-19T00:24:31;21.20;99.90
5723;DHT22;2886;49.722;8.612;2022-08-19T00:26:57;21.20;99.90
5723;DHT22;2886;49.722;8.612;2022-08-19T00:29:24;21.30;99.90
5723;DHT22;2886;49.722;8.612;2022-08-19T00:31:51;21.20;99.90
5723;DHT22;2886;49.722;8.612;2022-08-19T00:34:20;21.20;99.90
5723;DHT22;2886;49.722;8.612;2022-08-19T00:36:48;21.20;99.90
5723;DHT22;2886;49.722;8.612;2022-08-19T00:39:15;21.20;99.90
5723;DHT22;2886;49.722;8.612;2022-08-19T00:41:42;21.10;99.90
5723;DHT22;2886;49.722;8.612;2022-08-19T00:44:11;21.10;99.90
5723;DHT22;2886;49.722;8.612;2022-08-19T00:46:40;21.10;99.90
5723;DHT22;2886;49.722;8.612;2022-08-19T00:49:17;21.00;99.90
5723;DHT22;2886;49.722;8.612;2022-08-19T00:51:47;21.00;99.90
5723;DHT22;2886;49.722;8.612;2022-08-19T00:54:13;21.00;99.90
5723;DHT22;2886;49.722;8.612;2022-08-19T00:56:40;21.00;99.90
5723;DHT22;2886;49.722;8.612;2022-08-19T00:59:06;20.90;99.90
5723;DHT22;2886;49.722;8.612;2022-08-19T01:01:36;20.90;99.90
5723;DHT22;2886;49.722;8.612;2022-08-19T01:04:02;20.90;99.90
5723;DHT22;2886;49.722;8.612;2022-08-19T01:06:27;20.80;99.90
5723;DHT22;2886;49.722;8.612;2022-08-19T01:08:56;20.80;99.90
5723;DHT22;2886;49.722;8.612;2022-08-19T01:11:22;20.90;99.90
5723;DHT22;2886;49.722;8.612;2022-08-19T01:13:48;21.00;99.90
5723;DHT22;2886;49.722;8.612;2022-08-19T01:16:17;21.00;99.90
5723;DHT22;2886;49.722;8.612;2022-08-19T01:18:44;21.00;99.90
5723;DHT22;2886;49.722;8.612;2022-08-19T01:21:31;21.00;99.90
5723;DHT22;2886;49.722;8.612;2022-08-19T01:23:58;21.00;99.90
5723;DHT22;2886;49.722;8.612;2022-08-19T01:26:25;21.00;99.90
5723;DHT22;2886;49.722;8.612;2022-08-19T01:28:54;21.00;99.90
5723;DHT22;2886;49.722;8.612;2022-08-19T01:31:23;21.00;99.90
5723;DHT22;2886;49.722;8.612;2022-08-19T01:33:51;21.10;99.90
5723;DHT22;2886;49.722;8.612;2022-08-19T01:36:28;21.10;99.90
5723;DHT22;2886;49.722;8.612;2022-08-19T01:38:55;21.10;99.90
5723;DHT22;2886;49.722;8.612;2022-08-19T01:41:21;21.10;99.90
5723;DHT22;2886;49.722;8.612;2022-08-19T01:43:49;21.00;99.90
5723;DHT22;2886;49.722;8.612;2022-08-19T01:46:15;21.00;99.90
5723;DHT22;2886;49.722;8.612;2022-08-19T01:48:43;21.00;99.90
5723;DHT22;2886;49.722;8.612;2022-08-19T01:51:10;21.00;99.90
5723;DHT22;2886;49.722;8.612;2022-08-19T01:53:37;21.00;99.90
5723;DHT22;2886;49.722;8.612;2022-08-19T01:56:04;21.00;99.90
5723;DHT22;2886;49.722;8.612;2022-08-19T01:58:41;20.90;99.90
5723;DHT22;2886;49.722;8.612;2022-08-19T02:01:11;21.00;99.90
5723;DHT22;2886;49.722;8.612;2022-08-19T02:03:38;21.00;99.90
5723;DHT22;2886;49.722;8.612;2022-08-19T02:06:03;21.00;99.90
5723;DHT22;2886;49.722;8.612;2022-08-19T02:08:31;21.00;99.90
5723;DHT22;2886;49.722;8.612;2022-08-19T02:10:58;21.00;99.90
5723;DHT22;2886;49.722;8.612;2022-08-19T02:13:26;21.00;99.90
5723;DHT22;2886;49.722;8.612;2022-08-19T02:15:52;20.90;99.90
5723;DHT22;2886;49.722;8.612;2022-08-19T02:18:18;21.00;99.90
5723;DHT22;2886;49.722;8.612;2022-08-19T02:20:44;20.90;99.90
5723;DHT22;2886;49.722;8.612;2022-08-19T02:23:13;20.90;99.90
5723;DHT22;2886;49.722;8.612;2022-08-19T02:25:39;20.90;99.90
5723;DHT22;2886;49.722;8.612;2022-08-19T02:28:05;20.90;99.90
5723;DHT22;2886;49.722;8.612;2022-08-19T02:30:32;21.00;99.90
5723;DHT22;2886;49.722;8.612;2022-08-19T02:32:57;21.00;99.90
5723;DHT22;2886;49.722;8.612;2022-08-19T02:35:23;21.00;99.90
5723;DHT22;2886;49.722;8.612;2022-08-19T02:37:50;21.00;99.90
5723;DHT22;2886;49.722;8.612;2022-08-19T02:40:34;20.90;99.90
5723;DHT22;2886;49.722;8.612;2022-08-19T02:43:02;20.80;99.90
5723;DHT22;2886;49.722;8.612;2022-08-19T02:45:36;20.80;99.90
5723;DHT22;2886;49.722;8.612;2022-08-19T02:48:02;20.80;99.90
5723;DHT22;2886;49.722;8.612;2022-08-19T02:50:28;20.80;99.90
5723;DHT22;2886;49.722;8.612;2022-08-19T02:52:54;20.80;99.90
5723;DHT22;2886;49.722;8.612;2022-08-19T02:55:19;20.70;99.90
5723;DHT22;2886;49.722;8.612;2022-08-19T02:57:46;20.70;99.90
5723;DHT22;2886;49.722;8.612;2022-08-19T03:00:12;20.60;99.90
5723;DHT22;2886;49.722;8.612;2022-08-19T03:02:39;20.50;99.90
5723;DHT22;2886;49.722;8.612;2022-08-19T03:05:06;20.50;99.90
5723;DHT22;2886;49.722;8.612;2022-08-19T03:07:32;20.40;99.90
5723;DHT22;2886;49.722;8.612;2022-08-19T03:09:58;20.40;99.90
5723;DHT22;2886;49.722;8.612;2022-08-19T03:12:24;20.40;99.90
5723;DHT22;2886;49.722;8.612;2022-08-19T03:14:49;20.40;99.90
5723;DHT22;2886;49.722;8.612;2022-08-19T03:17:16;20.30;99.90
5723;DHT22;2886;49.722;8.612;2022-08-19T03:19:42;20.30;99.90
5723;DHT22;2886;49.722;8.612;2022-08-19T03:22:08;20.20;99.90
5723;DHT22;2886;49.722;8.612;2022-08-19T03:24:34;20.20;99.90
5723;DHT22;2886;49.722;8.612;2022-08-19T03:27:00;20.20;99.90
5723;DHT22;2886;49.722;8.612;2022-08-19T03:29:28;20.10;99.90
5723;DHT22;2886;49.722;8.612;2022-08-19T03:31:54;20.10;99.90
5723;DHT22;2886;49.722;8.612;2022-08-19T03:34:25;20.20;99.90
5723;DHT22;2886;49.722;8.612;2022-08-19T03:36:56;20.20;99.90
5723;DHT22;2886;49.722;8.612;2022-08-19T03:39:24;20.10;99.90
5723;DHT22;2886;49.722;8.612;2022-08-19T03:41:51;20.10;99.90
5723;DHT22;2886;49.722;8.612;2022-08-19T03:44:19;20.00;99.90
5723;DHT22;2886;49.722;8.612;2022-08-19T03:46:55;20.00;99.90
5723;DHT22;2886;49.722;8.612;2022-08-19T03:49:23;19.90;99.90
5723;DHT22;2886;49.722;8.612;2022-08-19T03:51:50;19.90;99.90
5723;DHT22;2886;49.722;8.612;2022-08-19T03:54:19;19.80;99.90
5723;DHT22;2886;49.722;8.612;2022-08-19T03:56:47;19.80;99.90
5723;DHT22;2886;49.722;8.612;2022-08-19T03:59:18;19.80;99.90
5723;DHT22;2886;49.722;8.612;2022-08-19T04:01:45;19.80;99.90
5723;DHT22;2886;49.722;8.612;2022-08-19T04:04:12;19.80;99.90
5723;DHT22;2886;49.722;8.612;2022-08-19T04:06:38;19.80;99.90
5723;DHT22;2886;49.722;8.612;2022-08-19T04:09:07;19.80;99.90
5723;DHT22;2886;49.722;8.612;2022-08-19T04:11:48;19.70;99.90
5723;DHT22;2886;49.722;8.612;2022-08-19T04:14:18;19.70;99.90
5723;DHT22;2886;49.722;8.612;2022-08-19T04:16:45;19.70;99.90
5723;DHT22;2886;49.722;8.612;2022-08-19T04:19:12;19.80;99.90
5723;DHT22;2886;49.722;8.612;2022-08-19T04:21:38;19.80;99.90
5723;DHT22;2886;49.722;8.612;2022-08-19T04:24:04;19.70;99.90
5723;DHT22;2886;49.722;8.612;2022-08-19T04:26:33;19.70;99.90
5723;DHT22;2886;49.722;8.612;2022-08-19T04:29:00;19.70;99.90
5723;DHT22;2886;49.722;8.612;2022-08-19T04:31:30;19.70;99.90
5723;DHT22;2886;49.722;8.612;2022-08-19T04:33:58;19.70;99.90
5723;DHT22;2886;49.722;8.612;2022-08-19T04:36:27;19.70;99.90
5723;DHT22;2886;49.722;8.612;2022-08-19T04:38:58;19.70;99.90
5723;DHT22;2886;49.722;8.612;2022-08-19T04:41:25;19.70;99.90
5723;DHT22;2886;49.722;8.612;2022-08-19T04:44:10;19.80;99.90
5723;DHT22;2886;49.722;8.612;2022-08-19T04:46:36;19.80;99.90
5723;DHT22;2886;49.722;8.612;2022-08-19T04:49:04;19.70;99.90
5723;DHT22;2886;49.722;8.612;2022-08-19T04:51:33;19.80;99.90
5723;DHT22;2886;49.722;8.612;2022-08-19T04:53:59;19.80;99.90
5723;DHT22;2886;49.722;8.612;2022-08-19T04:56:26;19.80;99.90
5723;DHT22;2886;49.722;8.612;2022-08-19T04:58:54;19.80;99.90
5723;DHT22;2886;49.722;8.612;2022-08-19T05:01:24;19.80;99.90
5723;DHT22;2886;49.722;8.612;2022-08-19T05:03:50;19.90;99.90
5723;DHT22;2886;49.722;8.612;2022-08-19T05:06:20;19.90;99.90
5723;DHT22;2886;49.722;8.612;2022-08-19T05:08:47;20.00;99.90
5723;DHT22;2886;49.722;8.612;2022-08-19T05:11:16;20.10;99.90
5723;DHT22;2886;49.722;8.612;2022-08-19T05:13:44;20.20;99.90
5723;DHT22;2886;49.722;8.612;2022-08-19T05:16:11;20.30;99.90
5723;DHT22;2886;49.722;8.612;2022-08-19T05:18:38;20.40;99.90
5723;DHT22;2886;49.722;8.612;2022-08-19T05:21:22;20.60;99.90
5723;DHT22;2886;49.722;8.612;2022-08-19T05:24:07;20.70;99.90
5723;DHT22;2886;49.722;8.612;2022-08-19T05:26:41;20.70;99.90
5723;DHT22;2886;49.722;8.612;2022-08-19T05:29:08;20.70;99.90
5723;DHT22;2886;49.722;8.612;2022-08-19T05:31:35;20.80;99.90
5723;DHT22;2886;49.722;8.612;2022-08-19T05:34:02;20.70;99.90
5723;DHT22;2886;49.722;8.612;2022-08-19T05:36:34;20.80;99.90
5723;DHT22;2886;49.722;8.612;2022-08-19T05:39:02;20.80;99.90
5723;DHT22;2886;49.722;8.612;2022-08-19T05:41:28;20.80;99.90
5723;DHT22;2886;49.722;8.612;2022-08-19T05:43:57;20.80;99.90
5723;DHT22;2886;49.722;8.612;2022-08-19T05:46:23;20.80;99.90
5723;DHT22;2886;49.722;8.612;2022-08-19T05:48:49;20.80;99.90
5723;DHT22;2886;49.722;8.612;2022-08-19T05:51:15;20.90;99.90
5723;DHT22;2886;49.722;8.612;2022-08-19T05:53:43;20.90;99.90
5723;DHT22;2886;49.722;8.612;2022-08-19T05:56:13;20.90;99.90
5723;DHT22;2886;49.722;8.612;2022-08-19T05:58:40;21.00;99.90
5723;DHT22;2886;49.722;8.612;2022-08-19T06:01:18;21.00;99.90
5723;DHT22;2886;49.722;8.612;2022-08-19T06:03:44;21.00;99.90
5723;DHT22;2886;49.722;8.612;2022-08-19T06:06:12;21.10;99.90
5723;DHT22;2886;49.722;8.612;2022-08-19T06:08:38;21.40;99.90
5723;DHT22;2886;49.722;8.612;2022-08-19T06:11:19;21.60;99.90
5723;DHT22;2886;49.722;8.612;2022-08-19T06:13:46;21.90;99.90
5723;DHT22;2886;49.722;8.612;2022-08-19T06:16:17;22.30;99.90
5723;DHT22;2886;49.722;8.612;2022-08-19T06:18:53;22.20;99.90
5723;DHT22;2886;49.722;8.612;2022-08-19T06:21:25;22.10;99.90
5723;DHT22;2886;49.722;8.612;2022-08-19T06:23:53;22.20;99.90
5723;DHT22;2886;49.722;8.612;2022-08-19T06:26:20;22.10;99.90
5723;DHT22;2886;49.722;8.612;2022-08-19T06:28:46;21.90;99.90
5723;DHT22;2886;49.722;8.612;2022-08-19T06:31:19;21.80;99.90
5723;DHT22;2886;49.722;8.612;2022-08-19T06:33:46;21.90;99.90
5723;DHT22;2886;49.722;8.612;2022-08-19T06:36:21;21.90;99.90
5723;DHT22;2886;49.722;8.612;2022-08-19T06:38:47;21.90;99.90
5723;DHT22;2886;49.722;8.612;2022-08-19T06:41:13;21.90;99.90
5723;DHT22;2886;49.722;8.612;2022-08-19T06:43:38;22.00;99.90
5723;DHT22;2886;49.722;8.612;2022-08-19T06:46:10;22.10;99.90
5723;DHT22;2886;49.722;8.612;2022-08-19T06:48:37;22.20;99.90
5723;DHT22;2886;49.722;8.612;2022-08-19T06:51:02;22.40;99.90
5723;DHT22;2886;49.722;8.612;2022-08-19T06:53:30;22.50;99.90
5723;DHT22;2886;49.722;8.612;2022-08-19T06:55:56;22.70;99.90
5723;DHT22;2886;49.722;8.612;2022-08-19T06:58:26;22.80;99.90
5723;DHT22;2886;49.722;8.612;2022-08-19T07:00:51;22.90;99.90
5723;DHT22;2886;49.722;8.612;2022-08-19T07:03:17;23.00;99.90
5723;DHT22;2886;49.722;8.612;2022-08-19T07:05:43;23.20;99.90
5723;DHT22;2886;49.722;8.612;2022-08-19T07:08:09;23.30;99.90
5723;DHT22;2886;49.722;8.612;2022-08-19T07:10:35;23.30;99.90
5723;DHT22;2886;49.722;8.612;2022-08-19T07:13:02;23.50;99.70
5723;DHT22;2886;49.722;8.612;2022-08-19T07:15:29;23.50;98.80
5723;DHT22;2886;49.722;8.612;2022-08-19T07:17:56;23.40;99.50
5723;DHT22;2886;49.722;8.612;2022-08-19T07:20:22;23.30;99.90
5723;DHT22;2886;49.722;8.612;2022-08-19T07:22:49;22.90;99.90
5723;DHT22;2886;49.722;8.612;2022-08-19T07:25:15;22.80;99.90
5723;DHT22;2886;49.722;8.612;2022-08-19T07:27:42;22.80;99.90
5723;DHT22;2886;49.722;8.612;2022-08-19T07:30:10;22.80;99.90
5723;DHT22;2886;49.722;8.612;2022-08-19T07:32:37;22.90;99.90
5723;DHT22;2886;49.722;8.612;2022-08-19T07:35:03;23.20;99.90
5723;DHT22;2886;49.722;8.612;2022-08-19T07:37:30;23.40;99.90
5723;DHT22;2886;49.722;8.612;2022-08-19T07:39:56;23.50;99.90
5723;DHT22;2886;49.722;8.612;2022-08-19T07:42:21;23.30;99.90
5723;DHT22;2886;49.722;8.612;2022-08-19T07:44:47;23.30;99.90
5723;DHT22;2886;49.722;8.612;2022-08-19T07:47:13;23.40;99.90
5723;DHT22;2886;49.722;8.612;2022-08-19T07:49:40;23.40;99.90
5723;DHT22;2886;49.722;8.612;2022-08-19T07:52:08;23.40;99.60
5723;DHT22;2886;49.722;8.612;2022-08-19T07:54:36;23.40;99.90
5723;DHT22;2886;49.722;8.612;2022-08-19T07:57:03;23.50;99.20
5723;DHT22;2886;49.722;8.612;2022-08-19T07:59:30;23.70;97.90
5723;DHT22;2886;49.722;8.612;2022-08-19T08:01:57;23.60;98.50
5723;DHT22;2886;49.722;8.612;2022-08-19T08:04:26;23.80;98.20
5723;DHT22;2886;49.722;8.612;2022-08-19T08:07:11;24.20;95.60
5723;DHT22;2886;49.722;8.612;2022-08-19T08:09:55;24.50;92.20
5723;DHT22;2886;49.722;8.612;2022-08-19T08:12:24;24.40;92.10
5723;DHT22;2886;49.722;8.612;2022-08-19T08:14:55;24.50;92.30
5723;DHT22;2886;49.722;8.612;2022-08-19T08:17:24;24.40;92.60
5723;DHT22;2886;49.722;8.612;2022-08-19T08:19:50;24.40;92.30
5723;DHT22;2886;49.722;8.612;2022-08-19T08:22:19;24.30;92.40
5723;DHT22;2886;49.722;8.612;2022-08-19T08:25:09;24.40;92.10
5723;DHT22;2886;49.722;8.612;2022-08-19T08:27:37;24.30;91.70
5723;DHT22;2886;49.722;8.612;2022-08-19T08:30:06;24.30;92.10
5723;DHT22;2886;49.722;8.612;2022-08-19T08:32:39;23.90;94.20
5723;DHT22;2886;49.722;8.612;2022-08-19T08:35:08;24.10;93.90
5723;DHT22;2886;49.722;8.612;2022-08-19T08:37:34;24.30;92.80
5723;DHT22;2886;49.722;8.612;2022-08-19T08:51:07;24.20;92.60
5723;DHT22;2886;49.722;8.612;2022-08-19T08:53:34;24.40;91.20
5723;DHT22;2886;49.722;8.612;2022-08-19T08:56:03;24.70;88.70
5723;DHT22;2886;49.722;8.612;2022-08-19T08:58:47;24.90;84.10
5723;DHT22;2886;49.722;8.612;2022-08-19T09:01:14;25.20;81.70
5723;DHT22;2886;49.722;8.612;2022-08-19T09:03:41;25.50;77.20
5723;DHT22;2886;49.722;8.612;2022-08-19T09:06:19;25.80;73.10
5723;DHT22;2886;49.722;8.612;2022-08-19T09:11:55;26.10;64.70
5723;DHT22;2886;49.722;8.612;2022-08-19T09:17:10;26.20;62.60
5723;DHT22;2886;49.722;8.612;2022-08-19T09:22:22;26.20;62.10
5723;DHT22;2886;49.722;8.612;2022-08-19T09:24:51;26.10;62.90
5723;DHT22;2886;49.722;8.612;2022-08-19T09:27:19;26.20;62.60
5723;DHT22;2886;49.722;8.612;2022-08-19T09:29:46;26.10;61.10
5723;DHT22;2886;49.722;8.612;2022-08-19T09:32:14;26.20;60.70
5723;DHT22;2886;49.722;8.612;2022-08-19T09:34:40;26.10;60.00
5723;DHT22;2886;49.722;8.612;2022-08-19T09:37:07;26.20;59.40
5723;DHT22;2886;49.722;8.612;2022-08-19T09:39:33;26.30;57.20
5723;DHT22;2886;49.722;8.612;2022-08-19T09:41:59;26.30;58.20
5723;DHT22;2886;49.722;8.612;2022-08-19T09:44:24;26.20;57.50
5723;DHT22;2886;49.722;8.612;2022-08-19T09:46:50;26.10;58.30
5723;DHT22;2886;49.722;8.612;2022-08-19T09:49:17;26.30;57.90
5723;DHT22;2886;49.722;8.612;2022-08-19T09:51:44;26.70;55.80
5723;DHT22;2886;49.722;8.612;2022-08-19T09:54:10;26.10;55.40
5723;DHT22;2886;49.722;8.612;2022-08-19T09:56:36;26.10;55.70
5723;DHT22;2886;49.722;8.612;2022-08-19T09:59:03;26.40;54.00
5723;DHT22;2886;49.722;8.612;2022-08-19T10:01:30;26.60;52.80
5723;DHT22;2886;49.722;8.612;2022-08-19T10:03:58;26.40;54.60
5723;DHT22;2886;49.722;8.612;2022-08-19T10:06:26;26.60;53.00
5723;DHT22;2886;49.722;8.612;2022-08-19T10:08:55;26.90;52.60
5723;DHT22;2886;49.722;8.612;2022-08-19T10:11:21;26.90;51.90
5723;DHT22;2886;49.722;8.612;2022-08-19T10:13:47;26.60;53.30
5723;DHT22;2886;49.722;8.612;2022-08-19T10:16:19;26.80;52.30
5723;DHT22;2886;49.722;8.612;2022-08-19T10:18:47;27.00;51.40
5723;DHT22;2886;49.722;8.612;2022-08-19T10:21:17;26.70;52.10
5723;DHT22;2886;49.722;8.612;2022-08-19T10:23:46;27.10;51.90
5723;DHT22;2886;49.722;8.612;2022-08-19T10:26:16;27.10;52.10
5723;DHT22;2886;49.722;8.612;2022-08-19T10:28:43;27.00;51.90
5723;DHT22;2886;49.722;8.612;2022-08-19T10:31:15;26.60;52.50
5723;DHT22;2886;49.722;8.612;2022-08-19T10:33:42;26.30;53.50
5723;DHT22;2886;49.722;8.612;2022-08-19T10:36:17;26.60;52.60
5723;DHT22;2886;49.722;8.612;2022-08-19T10:38:44;27.00;52.40
5723;DHT22;2886;49.722;8.612;2022-08-19T10:41:16;26.90;51.50
5723;DHT22;2886;49.722;8.612;2022-08-19T10:43:43;27.00;51.20
5723;DHT22;2886;49.722;8.612;2022-08-19T10:46:13;27.00;51.40
5723;DHT22;2886;49.722;8.612;2022-08-19T10:48:40;27.10;51.00
5723;DHT22;2886;49.722;8.612;2022-08-19T10:51:06;27.00;50.70
5723;DHT22;2886;49.722;8.612;2022-08-19T10:53:51;26.70;50.70
5723;DHT22;2886;49.722;8.612;2022-08-19T10:56:17;26.80;51.20
5723;DHT22;2886;49.722;8.612;2022-08-19T10:59:03;27.30;49.50
5723;DHT22;2886;49.722;8.612;2022-08-19T11:01:30;27.50;47.80
5723;DHT22;2886;49.722;8.612;2022-08-19T11:03:57;27.20;49.20
5723;DHT22;2886;49.722;8.612;2022-08-19T11:06:24;27.10;49.20
5723;DHT22;2886;49.722;8.612;2022-08-19T11:08:51;27.40;48.00
5723;DHT22;2886;49.722;8.612;2022-08-19T11:11:17;27.40;46.90
5723;DHT22;2886;49.722;8.612;2022-08-19T11:13:44;27.50;46.40
5723;DHT22;2886;49.722;8.612;2022-08-19T11:16:17;27.70;45.90
5723;DHT22;2886;49.722;8.612;2022-08-19T11:22:01;27.80;45.70
5723;DHT22;2886;49.722;8.612;2022-08-19T11:24:28;27.70;46.90
5723;DHT22;2886;49.722;8.612;2022-08-19T11:27:01;27.50;45.40
5723;DHT22;2886;49.722;8.612;2022-08-19T11:29:27;27.40;45.80
5723;DHT22;2886;49.722;8.612;2022-08-19T11:31:54;27.50;45.20
5723;DHT22;2886;49.722;8.612;2022-08-19T11:34:23;27.40;45.40
5723;DHT22;2886;49.722;8.612;2022-08-19T11:36:51;27.70;45.40
5723;DHT22;2886;49.722;8.612;2022-08-19T11:39:20;27.50;46.00
5723;DHT22;2886;49.722;8.612;2022-08-19T11:41:46;27.80;45.30
5723;DHT22;2886;49.722;8.612;2022-08-19T11:44:12;28.00;43.30
5723;DHT22;2886;49.722;8.612;2022-08-19T11:46:40;27.80;42.50
5723;DHT22;2886;49.722;8.612;2022-08-19T11:49:07;27.50;42.40
5723;DHT22;2886;49.722;8.612;2022-08-19T11:51:35;27.70;43.10
5723;DHT22;2886;49.722;8.612;2022-08-19T11:54:04;27.70;44.00
5723;DHT22;2886;49.722;8.612;2022-08-19T11:56:30;28.10;44.20
5723;DHT22;2886;49.722;8.612;2022-08-19T11:58:57;27.70;44.70
5723;DHT22;2886;49.722;8.612;2022-08-19T12:01:25;27.00;47.10
5723;DHT22;2886;49.722;8.612;2022-08-19T12:03:52;27.00;46.90
5723;DHT22;2886;49.722;8.612;2022-08-19T12:06:26;27.40;44.90
5723;DHT22;2886;49.722;8.612;2022-08-19T12:08:54;27.60;44.10
5723;DHT22;2886;49.722;8.612;2022-08-19T12:11:20;27.90;43.20
5723;DHT22;2886;49.722;8.612;2022-08-19T12:13:46;28.00;43.80
5723;DHT22;2886;49.722;8.612;2022-08-19T12:16:14;27.80;44.00
5723;DHT22;2886;49.722;8.612;2022-08-19T12:18:42;28.10;43.60
5723;DHT22;2886;49.722;8.612;2022-08-19T12:21:16;28.20;43.10
5723;DHT22;2886;49.722;8.612;2022-08-19T12:23:42;27.90;42.80
5723;DHT22;2886;49.722;8.612;2022-08-19T12:26:11;27.50;43.80
5723;DHT22;2886;49.722;8.612;2022-08-19T12:28:36;27.30;43.60
5723;DHT22;2886;49.722;8.612;2022-08-19T12:31:03;27.50;43.30
5723;DHT22;2886;49.722;8.612;2022-08-19T12:33:29;27.80;42.90
5723;DHT22;2886;49.722;8.612;2022-08-19T12:36:04;27.90;43.90
5723;DHT22;2886;49.722;8.612;2022-08-19T12:38:31;27.90;42.80
5723;DHT22;2886;49.722;8.612;2022-08-19T12:40:58;27.60;42.70
5723;DHT22;2886;49.722;8.612;2022-08-19T12:43:24;27.40;43.90
5723;DHT22;2886;49.722;8.612;2022-08-19T12:45:49;27.30;43.60
5723;DHT22;2886;49.722;8.612;2022-08-19T12:48:16;27.40;43.10
5723;DHT22;2886;49.722;8.612;2022-08-19T12:50:43;27.50;42.40
5723;DHT22;2886;49.722;8.612;2022-08-19T12:53:13;27.60;41.60
5723;DHT22;2886;49.722;8.612;2022-08-19T12:55:39;27.80;41.40
5723;DHT22;2886;49.722;8.612;2022-08-19T12:58:05;27.90;41.30
5723;DHT22;2886;49.722;8.612;2022-08-19T13:00:31;28.10;40.60
5723;DHT22;2886;49.722;8.612;2022-08-19T13:02:59;28.30;40.50
5723;DHT22;2886;49.722;8.612;2022-08-19T13:05:29;28.60;38.00
5723;DHT22;2886;49.722;8.612;2022-08-19T13:07:56;28.90;37.50
5723;DHT22;2886;49.722;8.612;2022-08-19T13:10:25;28.90;37.40
5723;DHT22;2886;49.722;8.612;2022-08-19T13:12:53;28.90;37.20
5723;DHT22;2886;49.722;8.612;2022-08-19T13:15:21;29.00;37.30
5723;DHT22;2886;49.722;8.612;2022-08-19T13:17:48;28.90;37.10
5723;DHT22;2886;49.722;8.612;2022-08-19T13:20:15;29.10;37.10
5723;DHT22;2886;49.722;8.612;2022-08-19T13:22:42;29.30;36.80
5723;DHT22;2886;49.722;8.612;2022-08-19T13:25:10;29.10;36.30
5723;DHT22;2886;49.722;8.612;2022-08-19T13:27:37;29.00;35.70
5723;DHT22;2886;49.722;8.612;2022-08-19T13:30:05;28.60;35.30
5723;DHT22;2886;49.722;8.612;2022-08-19T13:32:50;28.30;36.10
5723;DHT22;2886;49.722;8.612;2022-08-19T13:35:34;28.50;36.20
5723;DHT22;2886;49.722;8.612;2022-08-19T13:38:00;28.50;36.20
5723;DHT22;2886;49.722;8.612;2022-08-19T13:40:31;28.30;36.30
5723;DHT22;2886;49.722;8.612;2022-08-19T13:43:00;28.20;36.10
5723;DHT22;2886;49.722;8.612;2022-08-19T13:45:28;28.10;36.70
5723;DHT22;2886;49.722;8.612;2022-08-19T13:47:55;28.10;37.30
5723;DHT22;2886;49.722;8.612;2022-08-19T13:50:28;28.00;37.50
5723;DHT22;2886;49.722;8.612;2022-08-19T13:52:54;28.10;37.50
5723;DHT22;2886;49.722;8.612;2022-08-19T13:55:21;28.30;36.80
5723;DHT22;2886;49.722;8.612;2022-08-19T13:57:51;28.40;36.40
5723;DHT22;2886;49.722;8.612;2022-08-19T14:00:18;28.30;36.30
5723;DHT22;2886;49.722;8.612;2022-08-19T14:02:46;28.30;36.40
5723;DHT22;2886;49.722;8.612;2022-08-19T14:05:14;28.30;37.00
5723;DHT22;2886;49.722;8.612;2022-08-19T14:07:40;28.30;37.10
5723;DHT22;2886;49.722;8.612;2022-08-19T14:10:08;28.50;36.70
5723;DHT22;2886;49.722;8.612;2022-08-19T14:12:34;28.60;36.20
5723;DHT22;2886;49.722;8.612;2022-08-19T14:15:01;28.50;35.90
5723;DHT22;2886;49.722;8.612;2022-08-19T14:17:28;28.50;36.30
5723;DHT22;2886;49.722;8.612;2022-08-19T14:19:58;28.50;36.40
5723;DHT22;2886;49.722;8.612;2022-08-19T14:22:24;28.80;36.90
5723;DHT22;2886;49.722;8.612;2022-08-19T14:24:50;28.60;36.00
5723;DHT22;2886;49.722;8.612;2022-08-19T14:27:15;28.70;36.90
5723;DHT22;2886;49.722;8.612;2022-08-19T14:29:41;28.80;37.00
5723;DHT22;2886;49.722;8.612;2022-08-19T14:32:07;29.00;36.70
5723;DHT22;2886;49.722;8.612;2022-08-19T14:34:33;29.10;36.60
5723;DHT22;2886;49.722;8.612;2022-08-19T14:36:59;29.10;36.30
5723;DHT22;2886;49.722;8.612;2022-08-19T14:39:25;29.00;35.20
5723;DHT22;2886;49.722;8.612;2022-08-19T14:41:50;29.00;35.30
5723;DHT22;2886;49.722;8.612;2022-08-19T14:44:16;29.30;34.90
5723;DHT22;2886;49.722;8.612;2022-08-19T14:46:42;29.20;34.60
5723;DHT22;2886;49.722;8.612;2022-08-19T14:49:09;29.10;35.30
5723;DHT22;2886;49.722;8.612;2022-08-19T14:51:35;29.10;35.50
5723;DHT22;2886;49.722;8.612;2022-08-19T14:54:01;29.30;36.20
5723;DHT22;2886;49.722;8.612;2022-08-19T14:56:29;29.50;35.40
5723;DHT22;2886;49.722;8.612;2022-08-19T14:58:56;29.40;35.10
5723;DHT22;2886;49.722;8.612;2022-08-19T15:01:24;29.20;35.20
5723;DHT22;2886;49.722;8.612;2022-08-19T15:03:51;29.40;34.90
5723;DHT22;2886;49.722;8.612;2022-08-19T15:06:19;29.30;34.10
5723;DHT22;2886;49.722;8.612;2022-08-19T15:08:45;29.40;32.90
5723;DHT22;2886;49.722;8.612;2022-08-19T15:11:18;29.40;33.10
5723;DHT22;2886;49.722;8.612;2022-08-19T15:13:46;29.40;33.90
5723;DHT22;2886;49.722;8.612;2022-08-19T15:16:12;29.40;34.60
5723;DHT22;2886;49.722;8.612;2022-08-19T15:18:41;29.60;34.50
5723;DHT22;2886;49.722;8.612;2022-08-19T15:21:11;29.40;34.60
5723;DHT22;2886;49.722;8.612;2022-08-19T15:23:42;29.50;34.60
5723;DHT22;2886;49.722;8.612;2022-08-19T15:26:07;29.60;34.30
5723;DHT22;2886;49.722;8.612;2022-08-19T15:28:34;29.70;34.10
5723;DHT22;2886;49.722;8.612;2022-08-19T15:30:59;29.60;33.60
5723;DHT22;2886;49.722;8.612;2022-08-19T15:33:26;29.50;31.00
5723;DHT22;2886;49.722;8.612;2022-08-19T15:35:52;29.40;32.20
5723;DHT22;2886;49.722;8.612;2022-08-19T15:38:21;29.50;32.50
5723;DHT22;2886;49.722;8.612;2022-08-19T15:40:49;29.50;33.00
5723;DHT22;2886;49.722;8.612;2022-08-19T15:43:16;29.50;33.30
5723;DHT22;2886;49.722;8.612;2022-08-19T15:45:44;29.60;33.50
5723;DHT22;2886;49.722;8.612;2022-08-19T15:48:10;29.70;33.30
5723;DHT22;2886;49.722;8.612;2022-08-19T15:50:36;29.50;33.30
5723;DHT22;2886;49.722;8.612;2022-08-19T15:53:05;29.40;33.80
5723;DHT22;2886;49.722;8.612;2022-08-19T15:55:34;29.40;34.10
5723;DHT22;2886;49.722;8.612;2022-08-19T15:58:04;29.30;33.40
5723;DHT22;2886;49.722;8.612;2022-08-19T16:00:48;29.30;33.50
5723;DHT22;2886;49.722;8.612;2022-08-19T16:03:32;29.40;33.70
5723;DHT22;2886;49.722;8.612;2022-08-19T16:06:16;29.40;32.30
5723;DHT22;2886;49.722;8.612;2022-08-19T16:08:55;29.20;33.00
5723;DHT22;2886;49.722;8.612;2022-08-19T16:11:24;29.20;32.90
5723;DHT22;2886;49.722;8.612;2022-08-19T16:13:52;29.10;32.80
5723;DHT22;2886;49.722;8.612;2022-08-19T16:16:25;29.10;32.70
5723;DHT22;2886;49.722;8.612;2022-08-19T16:18:56;29.00;32.80
5723;DHT22;2886;49.722;8.612;2022-08-19T16:21:24;29.00;33.20
5723;DHT22;2886;49.722;8.612;2022-08-19T16:23:52;28.90;33.40
5723;DHT22;2886;49.722;8.612;2022-08-19T16:26:18;28.90;33.70
5723;DHT22;2886;49.722;8.612;2022-08-19T16:28:46;28.90;34.00
5723;DHT22;2886;49.722;8.612;2022-08-19T16:31:13;28.90;34.30